sensor_id;sensor_type;location;lat;lon;timestamp;P1;durP1;ratioP1;P2;durP2;ratioP2
20449;SDS011;10384;51.940;8.432;2022-11-06T00:00:39;6.97;;;3.43;;
20449;SDS011;10384;51.940;8.432;2022-11-06T00:03:05;8.63;;;4.23;;
20449;SDS011;10384;51.940;8.432;2022-11-06T00:05:31;11.80;;;4.40;;
20449;SDS011;10384;51.940;8.432;2022-11-06T00:08:24;7.20;;;4.20;;
20449;SDS011;10384;51.940;8.432;2022-11-06T00:10:50;7.30;;;4.30;;
20449;SDS011;10384;51.940;8.432;2022-11-06T00:13:16;8.10;;;4.10;;
20449;SDS011;10384;51.940;8.432;2022-11-06T00:15:42;6.87;;;4.03;;
20449;SDS011;10384;51.940;8.432;2022-11-06T00:18:08;10.17;;;4.20;;
20449;SDS011;10384;51.940;8.432;2022-11-06T00:20:35;8.17;;;4.40;;
20449;SDS011;10384;51.940;8.432;2022-11-06T00:23:01;11.20;;;4.10;;
20449;SDS011;10384;51.940;8.432;2022-11-06T00:25:27;8.40;;;3.90;;
20449;SDS011;10384;51.940;8.432;2022-11-06T00:27:53;9.53;;;3.97;;
20449;SDS011;10384;51.940;8.432;2022-11-06T00:30:19;8.67;;;4.53;;
20449;SDS011;10384;51.940;8.432;2022-11-06T00:32:45;7.60;;;3.90;;
20449;SDS011;10384;51.940;8.432;2022-11-06T00:35:12;10.27;;;4.63;;
20449;SDS011;10384;51.940;8.432;2022-11-06T00:37:38;10.50;;;4.00;;
20449;SDS011;10384;51.940;8.432;2022-11-06T00:40:04;10.97;;;3.90;;
20449;SDS011;10384;51.940;8.432;2022-11-06T00:42:30;10.43;;;4.70;;
20449;SDS011;10384;51.940;8.432;2022-11-06T00:44:56;8.40;;;4.20;;
20449;SDS011;10384;51.940;8.432;2022-11-06T00:47:23;8.73;;;4.10;;
20449;SDS011;10384;51.940;8.432;2022-11-06T00:49:49;11.00;;;4.20;;
20449;SDS011;10384;51.940;8.432;2022-11-06T00:52:15;7.17;;;3.60;;
20449;SDS011;10384;51.940;8.432;2022-11-06T00:54:41;11.27;;;4.67;;
20449;SDS011;10384;51.940;8.432;2022-11-06T00:57:07;8.67;;;4.07;;
20449;SDS011;10384;51.940;8.432;2022-11-06T00:59:33;8.43;;;3.87;;
20449;SDS011;10384;51.940;8.432;2022-11-06T01:01:59;7.73;;;4.13;;
20449;SDS011;10384;51.940;8.432;2022-11-06T01:04:25;10.73;;;4.53;;
20449;SDS011;10384;51.940;8.432;2022-11-06T01:06:51;7.53;;;3.77;;
20449;SDS011;10384;51.940;8.432;2022-11-06T01:09:19;6.57;;;3.93;;
20449;SDS011;10384;51.940;8.432;2022-11-06T01:11:47;8.53;;;4.60;;
20449;SDS011;10384;51.940;8.432;2022-11-06T01:14:13;10.90;;;4.20;;
20449;SDS011;10384;51.940;8.432;2022-11-06T01:16:40;8.40;;;4.10;;
20449;SDS011;10384;51.940;8.432;2022-11-06T01:19:06;9.43;;;4.13;;
20449;SDS011;10384;51.940;8.432;2022-11-06T01:21:35;9.57;;;4.30;;
20449;SDS011;10384;51.940;8.432;2022-11-06T01:24:05;7.93;;;4.07;;
20449;SDS011;10384;51.940;8.432;2022-11-06T01:26:32;11.67;;;4.10;;
20449;SDS011;10384;51.940;8.432;2022-11-06T01:28:58;11.00;;;4.20;;
20449;SDS011;10384;51.940;8.432;2022-11-06T01:31:28;13.00;;;4.93;;
20449;SDS011;10384;51.940;8.432;2022-11-06T01:33:55;10.40;;;4.07;;
20449;SDS011;10384;51.940;8.432;2022-11-06T01:36:21;11.07;;;4.17;;
20449;SDS011;10384;51.940;8.432;2022-11-06T01:38:48;9.20;;;3.87;;
20449;SDS011;10384;51.940;8.432;2022-11-06T01:41:22;11.03;;;4.10;;
20449;SDS011;10384;51.940;8.432;2022-11-06T01:43:52;9.67;;;4.03;;
20449;SDS011;10384;51.940;8.432;2022-11-06T01:46:19;9.03;;;4.07;;
20449;SDS011;10384;51.940;8.432;2022-11-06T01:48:48;9.73;;;4.33;;
20449;SDS011;10384;51.940;8.432;2022-11-06T01:51:14;9.83;;;4.83;;
20449;SDS011;10384;51.940;8.432;2022-11-06T01:53:41;10.20;;;4.77;;
20449;SDS011;10384;51.940;8.432;2022-11-06T01:56:07;10.30;;;4.50;;
20449;SDS011;10384;51.940;8.432;2022-11-06T01:58:34;9.30;;;3.90;;
20449;SDS011;10384;51.940;8.432;2022-11-06T02:01:01;8.77;;;4.50;;
20449;SDS011;10384;51.940;8.432;2022-11-06T02:03:27;9.07;;;4.07;;
20449;SDS011;10384;51.940;8.432;2022-11-06T02:05:53;9.23;;;4.20;;
20449;SDS011;10384;51.940;8.432;2022-11-06T02:08:21;9.17;;;4.30;;
20449;SDS011;10384;51.940;8.432;2022-11-06T02:10:47;8.50;;;4.00;;
20449;SDS011;10384;51.940;8.432;2022-11-06T02:13:24;10.77;;;3.70;;
20449;SDS011;10384;51.940;8.432;2022-11-06T02:18:43;7.83;;;3.90;;
20449;SDS011;10384;51.940;8.432;2022-11-06T02:23:44;6.73;;;3.10;;
20449;SDS011;10384;51.940;8.432;2022-11-06T02:29:03;7.23;;;3.70;;
20449;SDS011;10384;51.940;8.432;2022-11-06T02:31:32;8.87;;;3.87;;
20449;SDS011;10384;51.940;8.432;2022-11-06T02:34:00;8.80;;;3.77;;
20449;SDS011;10384;51.940;8.432;2022-11-06T02:36:29;9.63;;;3.70;;
20449;SDS011;10384;51.940;8.432;2022-11-06T02:38:56;7.80;;;3.97;;
20449;SDS011;10384;51.940;8.432;2022-11-06T02:41:24;9.13;;;3.77;;
20449;SDS011;10384;51.940;8.432;2022-11-06T02:43:52;8.50;;;3.90;;
20449;SDS011;10384;51.940;8.432;2022-11-06T02:46:26;7.87;;;4.20;;
20449;SDS011;10384;51.940;8.432;2022-11-06T02:48:55;12.20;;;4.47;;
20449;SDS011;10384;51.940;8.432;2022-11-06T02:51:24;8.07;;;3.63;;
20449;SDS011;10384;51.940;8.432;2022-11-06T02:53:51;9.27;;;3.63;;
20449;SDS011;10384;51.940;8.432;2022-11-06T02:56:19;6.67;;;3.10;;
20449;SDS011;10384;51.940;8.432;2022-11-06T02:58:48;6.20;;;3.27;;
20449;SDS011;10384;51.940;8.432;2022-11-06T03:01:21;8.20;;;3.57;;
20449;SDS011;10384;51.940;8.432;2022-11-06T03:03:51;6.53;;;3.63;;
20449;SDS011;10384;51.940;8.432;2022-11-06T03:06:21;8.10;;;3.33;;
20449;SDS011;10384;51.940;8.432;2022-11-06T03:08:53;11.27;;;3.73;;
20449;SDS011;10384;51.940;8.432;2022-11-06T03:11:30;7.00;;;3.43;;
20449;SDS011;10384;51.940;8.432;2022-11-06T03:16:27;11.43;;;3.57;;
20449;SDS011;10384;51.940;8.432;2022-11-06T03:18:58;6.23;;;2.90;;
20449;SDS011;10384;51.940;8.432;2022-11-06T03:24:16;9.47;;;2.97;;
20449;SDS011;10384;51.940;8.432;2022-11-06T03:26:46;6.40;;;3.17;;
20449;SDS011;10384;51.940;8.432;2022-11-06T03:29:15;6.07;;;3.03;;
20449;SDS011;10384;51.940;8.432;2022-11-06T03:32:05;6.47;;;2.87;;
20449;SDS011;10384;51.940;8.432;2022-11-06T03:34:37;4.80;;;2.73;;
20449;SDS011;10384;51.940;8.432;2022-11-06T03:37:05;6.10;;;2.80;;
20449;SDS011;10384;51.940;8.432;2022-11-06T03:39:34;13.87;;;3.20;;
20449;SDS011;10384;51.940;8.432;2022-11-06T03:42:05;6.03;;;3.10;;
20449;SDS011;10384;51.940;8.432;2022-11-06T03:44:33;6.33;;;3.00;;
20449;SDS011;10384;51.940;8.432;2022-11-06T03:49:35;5.80;;;3.10;;
20449;SDS011;10384;51.940;8.432;2022-11-06T03:52:04;7.73;;;2.80;;
20449;SDS011;10384;51.940;8.432;2022-11-06T03:54:33;6.47;;;3.07;;
20449;SDS011;10384;51.940;8.432;2022-11-06T03:57:13;4.07;;;2.73;;
20449;SDS011;10384;51.940;8.432;2022-11-06T03:59:43;5.43;;;2.80;;
20449;SDS011;10384;51.940;8.432;2022-11-06T04:02:11;6.83;;;3.00;;
20449;SDS011;10384;51.940;8.432;2022-11-06T04:04:58;6.83;;;2.80;;
20449;SDS011;10384;51.940;8.432;2022-11-06T04:07:25;6.53;;;3.07;;
20449;SDS011;10384;51.940;8.432;2022-11-06T04:09:54;6.00;;;2.90;;
20449;SDS011;10384;51.940;8.432;2022-11-06T04:12:40;6.77;;;2.60;;
20449;SDS011;10384;51.940;8.432;2022-11-06T04:15:25;5.63;;;2.63;;
20449;SDS011;10384;51.940;8.432;2022-11-06T04:17:52;6.20;;;2.67;;
20449;SDS011;10384;51.940;8.432;2022-11-06T04:20:19;6.10;;;2.53;;
20449;SDS011;10384;51.940;8.432;2022-11-06T04:28:53;6.17;;;2.30;;
20449;SDS011;10384;51.940;8.432;2022-11-06T04:33:53;5.03;;;2.47;;
20449;SDS011;10384;51.940;8.432;2022-11-06T04:39:03;6.63;;;3.03;;
20449;SDS011;10384;51.940;8.432;2022-11-06T04:44:04;9.77;;;2.80;;
20449;SDS011;10384;51.940;8.432;2022-11-06T04:46:32;7.63;;;2.30;;
20449;SDS011;10384;51.940;8.432;2022-11-06T04:49:00;6.67;;;2.60;;
20449;SDS011;10384;51.940;8.432;2022-11-06T04:51:28;5.93;;;2.90;;
20449;SDS011;10384;51.940;8.432;2022-11-06T04:53:56;4.33;;;2.50;;
20449;SDS011;10384;51.940;8.432;2022-11-06T04:56:24;6.40;;;2.80;;
20449;SDS011;10384;51.940;8.432;2022-11-06T04:58:51;9.33;;;3.00;;
20449;SDS011;10384;51.940;8.432;2022-11-06T05:01:17;6.43;;;2.70;;
20449;SDS011;10384;51.940;8.432;2022-11-06T05:03:43;9.47;;;2.60;;
20449;SDS011;10384;51.940;8.432;2022-11-06T05:06:09;8.37;;;3.00;;
20449;SDS011;10384;51.940;8.432;2022-11-06T05:08:35;6.73;;;2.77;;
20449;SDS011;10384;51.940;8.432;2022-11-06T05:11:01;8.47;;;2.57;;
20449;SDS011;10384;51.940;8.432;2022-11-06T05:13:27;4.07;;;2.60;;
20449;SDS011;10384;51.940;8.432;2022-11-06T05:15:54;6.20;;;2.30;;
20449;SDS011;10384;51.940;8.432;2022-11-06T05:18:21;5.87;;;2.40;;
20449;SDS011;10384;51.940;8.432;2022-11-06T05:20:47;6.33;;;2.37;;
20449;SDS011;10384;51.940;8.432;2022-11-06T05:23:13;3.80;;;2.20;;
20449;SDS011;10384;51.940;8.432;2022-11-06T05:25:39;5.63;;;2.50;;
20449;SDS011;10384;51.940;8.432;2022-11-06T05:28:06;6.43;;;2.47;;
20449;SDS011;10384;51.940;8.432;2022-11-06T05:30:33;6.23;;;2.90;;
20449;SDS011;10384;51.940;8.432;2022-11-06T05:33:00;6.67;;;2.50;;
20449;SDS011;10384;51.940;8.432;2022-11-06T05:35:26;4.90;;;2.20;;
20449;SDS011;10384;51.940;8.432;2022-11-06T05:37:59;5.27;;;2.23;;
20449;SDS011;10384;51.940;8.432;2022-11-06T05:40:25;8.80;;;2.67;;
20449;SDS011;10384;51.940;8.432;2022-11-06T05:42:51;4.60;;;2.20;;
20449;SDS011;10384;51.940;8.432;2022-11-06T05:45:17;5.47;;;2.40;;
20449;SDS011;10384;51.940;8.432;2022-11-06T05:47:43;7.37;;;2.47;;
20449;SDS011;10384;51.940;8.432;2022-11-06T05:50:09;5.60;;;2.40;;
20449;SDS011;10384;51.940;8.432;2022-11-06T05:52:35;6.53;;;2.30;;
20449;SDS011;10384;51.940;8.432;2022-11-06T05:55:01;7.33;;;2.60;;
20449;SDS011;10384;51.940;8.432;2022-11-06T05:57:27;6.70;;;2.47;;
20449;SDS011;10384;51.940;8.432;2022-11-06T05:59:53;4.70;;;2.10;;
20449;SDS011;10384;51.940;8.432;2022-11-06T06:02:19;5.23;;;1.90;;
20449;SDS011;10384;51.940;8.432;2022-11-06T06:04:45;4.30;;;2.23;;
20449;SDS011;10384;51.940;8.432;2022-11-06T06:07:11;4.90;;;2.10;;
20449;SDS011;10384;51.940;8.432;2022-11-06T06:09:37;6.30;;;2.17;;
20449;SDS011;10384;51.940;8.432;2022-11-06T06:12:03;7.10;;;2.20;;
20449;SDS011;10384;51.940;8.432;2022-11-06T06:14:29;4.73;;;2.50;;
20449;SDS011;10384;51.940;8.432;2022-11-06T06:16:55;6.43;;;3.13;;
20449;SDS011;10384;51.940;8.432;2022-11-06T06:19:21;6.33;;;2.80;;
20449;SDS011;10384;51.940;8.432;2022-11-06T06:21:47;6.27;;;2.63;;
20449;SDS011;10384;51.940;8.432;2022-11-06T06:24:14;3.03;;;2.00;;
20449;SDS011;10384;51.940;8.432;2022-11-06T06:26:39;3.87;;;2.23;;
20449;SDS011;10384;51.940;8.432;2022-11-06T06:29:05;9.07;;;2.60;;
20449;SDS011;10384;51.940;8.432;2022-11-06T06:31:31;6.83;;;2.17;;
20449;SDS011;10384;51.940;8.432;2022-11-06T06:33:57;4.53;;;2.30;;
20449;SDS011;10384;51.940;8.432;2022-11-06T06:36:23;7.43;;;2.03;;
20449;SDS011;10384;51.940;8.432;2022-11-06T06:38:49;4.77;;;2.07;;
20449;SDS011;10384;51.940;8.432;2022-11-06T06:41:15;9.53;;;2.57;;
20449;SDS011;10384;51.940;8.432;2022-11-06T06:43:41;3.37;;;2.23;;
20449;SDS011;10384;51.940;8.432;2022-11-06T06:46:07;5.27;;;2.40;;
20449;SDS011;10384;51.940;8.432;2022-11-06T06:48:34;3.73;;;2.40;;
20449;SDS011;10384;51.940;8.432;2022-11-06T06:51:00;6.63;;;2.33;;
20449;SDS011;10384;51.940;8.432;2022-11-06T06:53:27;7.00;;;2.47;;
20449;SDS011;10384;51.940;8.432;2022-11-06T06:55:53;9.87;;;2.40;;
20449;SDS011;10384;51.940;8.432;2022-11-06T06:58:19;5.03;;;2.30;;
20449;SDS011;10384;51.940;8.432;2022-11-06T07:00:45;3.73;;;2.30;;
20449;SDS011;10384;51.940;8.432;2022-11-06T07:03:11;5.90;;;2.33;;
20449;SDS011;10384;51.940;8.432;2022-11-06T07:05:37;4.27;;;2.50;;
20449;SDS011;10384;51.940;8.432;2022-11-06T07:08:04;5.33;;;2.73;;
20449;SDS011;10384;51.940;8.432;2022-11-06T07:10:30;6.23;;;2.30;;
20449;SDS011;10384;51.940;8.432;2022-11-06T07:13:05;5.53;;;2.53;;
20449;SDS011;10384;51.940;8.432;2022-11-06T07:15:31;3.63;;;2.10;;
20449;SDS011;10384;51.940;8.432;2022-11-06T07:18:04;5.27;;;2.20;;
20449;SDS011;10384;51.940;8.432;2022-11-06T07:20:30;7.40;;;2.47;;
20449;SDS011;10384;51.940;8.432;2022-11-06T07:22:56;6.97;;;2.30;;
20449;SDS011;10384;51.940;8.432;2022-11-06T07:25:22;4.80;;;1.87;;
20449;SDS011;10384;51.940;8.432;2022-11-06T07:27:48;4.90;;;2.00;;
20449;SDS011;10384;51.940;8.432;2022-11-06T07:30:14;7.20;;;1.97;;
20449;SDS011;10384;51.940;8.432;2022-11-06T07:32:40;6.77;;;2.53;;
20449;SDS011;10384;51.940;8.432;2022-11-06T07:35:07;3.00;;;1.67;;
20449;SDS011;10384;51.940;8.432;2022-11-06T07:37:34;5.00;;;2.20;;
20449;SDS011;10384;51.940;8.432;2022-11-06T07:40:00;6.33;;;2.20;;
20449;SDS011;10384;51.940;8.432;2022-11-06T07:42:26;6.40;;;2.43;;
20449;SDS011;10384;51.940;8.432;2022-11-06T07:44:53;6.93;;;2.13;;
20449;SDS011;10384;51.940;8.432;2022-11-06T07:47:19;4.33;;;1.83;;
20449;SDS011;10384;51.940;8.432;2022-11-06T07:49:45;8.67;;;1.90;;
20449;SDS011;10384;51.940;8.432;2022-11-06T07:52:11;5.33;;;2.10;;
20449;SDS011;10384;51.940;8.432;2022-11-06T07:54:37;4.27;;;1.80;;
20449;SDS011;10384;51.940;8.432;2022-11-06T07:57:03;5.77;;;1.87;;
20449;SDS011;10384;51.940;8.432;2022-11-06T07:59:29;3.03;;;2.00;;
20449;SDS011;10384;51.940;8.432;2022-11-06T08:01:55;8.03;;;1.90;;
20449;SDS011;10384;51.940;8.432;2022-11-06T08:04:21;5.43;;;2.07;;
20449;SDS011;10384;51.940;8.432;2022-11-06T08:06:47;3.70;;;2.07;;
20449;SDS011;10384;51.940;8.432;2022-11-06T08:09:13;3.23;;;1.90;;
20449;SDS011;10384;51.940;8.432;2022-11-06T08:11:39;6.70;;;2.07;;
20449;SDS011;10384;51.940;8.432;2022-11-06T08:14:05;5.03;;;1.70;;
20449;SDS011;10384;51.940;8.432;2022-11-06T08:16:31;3.83;;;1.70;;
20449;SDS011;10384;51.940;8.432;2022-11-06T08:18:57;4.67;;;2.03;;
20449;SDS011;10384;51.940;8.432;2022-11-06T08:21:23;2.97;;;1.53;;
20449;SDS011;10384;51.940;8.432;2022-11-06T08:23:49;5.47;;;1.60;;
20449;SDS011;10384;51.940;8.432;2022-11-06T08:26:15;2.83;;;1.67;;
20449;SDS011;10384;51.940;8.432;2022-11-06T08:28:41;3.40;;;1.90;;
20449;SDS011;10384;51.940;8.432;2022-11-06T08:31:07;4.20;;;1.70;;
20449;SDS011;10384;51.940;8.432;2022-11-06T08:33:34;6.30;;;1.90;;
20449;SDS011;10384;51.940;8.432;2022-11-06T08:36:01;3.53;;;1.90;;
20449;SDS011;10384;51.940;8.432;2022-11-06T08:38:27;3.33;;;1.80;;
20449;SDS011;10384;51.940;8.432;2022-11-06T08:40:53;4.17;;;1.73;;
20449;SDS011;10384;51.940;8.432;2022-11-06T08:43:19;5.17;;;1.80;;
20449;SDS011;10384;51.940;8.432;2022-11-06T08:45:48;3.50;;;1.60;;
20449;SDS011;10384;51.940;8.432;2022-11-06T08:48:14;2.70;;;1.27;;
20449;SDS011;10384;51.940;8.432;2022-11-06T08:50:40;4.40;;;1.60;;
20449;SDS011;10384;51.940;8.432;2022-11-06T08:53:06;3.80;;;1.50;;
20449;SDS011;10384;51.940;8.432;2022-11-06T08:55:32;4.87;;;1.70;;
20449;SDS011;10384;51.940;8.432;2022-11-06T08:57:58;4.50;;;1.50;;
20449;SDS011;10384;51.940;8.432;2022-11-06T09:00:25;2.10;;;1.40;;
20449;SDS011;10384;51.940;8.432;2022-11-06T09:02:56;7.70;;;1.63;;
20449;SDS011;10384;51.940;8.432;2022-11-06T09:05:22;6.27;;;1.70;;
20449;SDS011;10384;51.940;8.432;2022-11-06T09:07:48;7.70;;;2.03;;
20449;SDS011;10384;51.940;8.432;2022-11-06T09:10:14;6.53;;;2.00;;
20449;SDS011;10384;51.940;8.432;2022-11-06T09:12:40;5.03;;;1.90;;
20449;SDS011;10384;51.940;8.432;2022-11-06T09:15:07;6.70;;;1.70;;
20449;SDS011;10384;51.940;8.432;2022-11-06T09:17:33;3.30;;;1.70;;
20449;SDS011;10384;51.940;8.432;2022-11-06T09:19:59;2.93;;;1.57;;
20449;SDS011;10384;51.940;8.432;2022-11-06T09:22:25;3.40;;;1.40;;
20449;SDS011;10384;51.940;8.432;2022-11-06T09:24:51;3.67;;;1.43;;
20449;SDS011;10384;51.940;8.432;2022-11-06T09:27:17;3.77;;;1.40;;
20449;SDS011;10384;51.940;8.432;2022-11-06T09:29:43;2.43;;;1.60;;
20449;SDS011;10384;51.940;8.432;2022-11-06T09:32:09;2.53;;;1.43;;
20449;SDS011;10384;51.940;8.432;2022-11-06T09:34:36;6.93;;;1.53;;
20449;SDS011;10384;51.940;8.432;2022-11-06T09:37:02;4.00;;;1.73;;
20449;SDS011;10384;51.940;8.432;2022-11-06T09:39:28;3.37;;;1.20;;
20449;SDS011;10384;51.940;8.432;2022-11-06T09:42:00;3.40;;;1.50;;
20449;SDS011;10384;51.940;8.432;2022-11-06T09:47:33;3.30;;;1.60;;
20449;SDS011;10384;51.940;8.432;2022-11-06T09:50:00;6.70;;;1.90;;
20449;SDS011;10384;51.940;8.432;2022-11-06T09:52:39;2.30;;;1.27;;
20449;SDS011;10384;51.940;8.432;2022-11-06T09:55:20;3.03;;;1.63;;
20449;SDS011;10384;51.940;8.432;2022-11-06T09:57:48;8.00;;;1.47;;
20449;SDS011;10384;51.940;8.432;2022-11-06T10:00:16;4.10;;;1.53;;
20449;SDS011;10384;51.940;8.432;2022-11-06T10:02:52;4.70;;;1.30;;
20449;SDS011;10384;51.940;8.432;2022-11-06T10:05:27;3.33;;;1.50;;
20449;SDS011;10384;51.940;8.432;2022-11-06T10:07:57;3.57;;;1.30;;
20449;SDS011;10384;51.940;8.432;2022-11-06T10:10:26;3.63;;;1.43;;
20449;SDS011;10384;51.940;8.432;2022-11-06T10:13:02;3.17;;;1.40;;
20449;SDS011;10384;51.940;8.432;2022-11-06T10:15:33;5.60;;;1.50;;
20449;SDS011;10384;51.940;8.432;2022-11-06T10:18:12;4.87;;;1.80;;
20449;SDS011;10384;51.940;8.432;2022-11-06T10:23:22;4.60;;;1.47;;
20449;SDS011;10384;51.940;8.432;2022-11-06T10:28:26;4.07;;;1.60;;
20449;SDS011;10384;51.940;8.432;2022-11-06T10:31:01;2.33;;;1.43;;
20449;SDS011;10384;51.940;8.432;2022-11-06T10:36:16;3.80;;;1.90;;
20449;SDS011;10384;51.940;8.432;2022-11-06T10:38:41;2.83;;;1.63;;
20449;SDS011;10384;51.940;8.432;2022-11-06T10:41:13;4.23;;;1.50;;
20449;SDS011;10384;51.940;8.432;2022-11-06T10:43:48;2.00;;;1.50;;
20449;SDS011;10384;51.940;8.432;2022-11-06T10:48:58;4.23;;;1.40;;
20449;SDS011;10384;51.940;8.432;2022-11-06T10:56:39;3.00;;;1.20;;
20449;SDS011;10384;51.940;8.432;2022-11-06T10:59:08;3.37;;;1.30;;
20449;SDS011;10384;51.940;8.432;2022-11-06T11:01:34;2.40;;;1.13;;
20449;SDS011;10384;51.940;8.432;2022-11-06T11:04:01;1.43;;;1.10;;
20449;SDS011;10384;51.940;8.432;2022-11-06T11:06:27;1.90;;;1.20;;
20449;SDS011;10384;51.940;8.432;2022-11-06T11:08:53;1.53;;;1.00;;
20449;SDS011;10384;51.940;8.432;2022-11-06T11:11:25;5.37;;;1.53;;
20449;SDS011;10384;51.940;8.432;2022-11-06T11:16:36;4.43;;;1.20;;
20449;SDS011;10384;51.940;8.432;2022-11-06T11:21:52;2.00;;;1.50;;
20449;SDS011;10384;51.940;8.432;2022-11-06T11:24:19;2.30;;;1.20;;
20449;SDS011;10384;51.940;8.432;2022-11-06T11:26:46;2.63;;;1.20;;
20449;SDS011;10384;51.940;8.432;2022-11-06T11:31:39;1.70;;;1.00;;
20449;SDS011;10384;51.940;8.432;2022-11-06T11:34:13;4.13;;;1.40;;
20449;SDS011;10384;51.940;8.432;2022-11-06T11:36:47;1.90;;;1.10;;
20449;SDS011;10384;51.940;8.432;2022-11-06T11:39:15;3.30;;;1.10;;
20449;SDS011;10384;51.940;8.432;2022-11-06T11:41:41;3.83;;;2.00;;
20449;SDS011;10384;51.940;8.432;2022-11-06T11:46:52;2.47;;;1.30;;
20449;SDS011;10384;51.940;8.432;2022-11-06T11:49:31;2.13;;;1.10;;
20449;SDS011;10384;51.940;8.432;2022-11-06T11:51:58;3.50;;;1.20;;
20449;SDS011;10384;51.940;8.432;2022-11-06T11:54:26;3.80;;;1.20;;
20449;SDS011;10384;51.940;8.432;2022-11-06T11:56:56;2.97;;;1.10;;
20449;SDS011;10384;51.940;8.432;2022-11-06T11:59:26;4.83;;;1.30;;
20449;SDS011;10384;51.940;8.432;2022-11-06T12:01:54;4.13;;;1.20;;
20449;SDS011;10384;51.940;8.432;2022-11-06T12:04:37;2.27;;;1.23;;
20449;SDS011;10384;51.940;8.432;2022-11-06T12:07:04;3.03;;;1.10;;
20449;SDS011;10384;51.940;8.432;2022-11-06T12:09:32;1.47;;;1.10;;
20449;SDS011;10384;51.940;8.432;2022-11-06T12:11:59;4.03;;;1.20;;
20449;SDS011;10384;51.940;8.432;2022-11-06T12:14:33;4.43;;;1.20;;
20449;SDS011;10384;51.940;8.432;2022-11-06T12:17:02;1.23;;;1.00;;
20449;SDS011;10384;51.940;8.432;2022-11-06T12:19:30;2.47;;;1.23;;
20449;SDS011;10384;51.940;8.432;2022-11-06T12:21:58;3.60;;;1.20;;
20449;SDS011;10384;51.940;8.432;2022-11-06T12:24:34;5.57;;;1.40;;
20449;SDS011;10384;51.940;8.432;2022-11-06T12:32:25;3.30;;;1.30;;
20449;SDS011;10384;51.940;8.432;2022-11-06T12:40:15;2.87;;;1.90;;
20449;SDS011;10384;51.940;8.432;2022-11-06T12:42:47;4.40;;;2.07;;
20449;SDS011;10384;51.940;8.432;2022-11-06T12:45:14;3.43;;;2.43;;
20449;SDS011;10384;51.940;8.432;2022-11-06T12:48:04;6.37;;;2.50;;
20449;SDS011;10384;51.940;8.432;2022-11-06T12:50:31;10.47;;;2.73;;
20449;SDS011;10384;51.940;8.432;2022-11-06T12:55:34;7.13;;;2.80;;
20449;SDS011;10384;51.940;8.432;2022-11-06T13:00:32;4.07;;;2.33;;
20449;SDS011;10384;51.940;8.432;2022-11-06T13:05:37;6.53;;;2.70;;
20449;SDS011;10384;51.940;8.432;2022-11-06T13:08:13;7.13;;;2.80;;
20449;SDS011;10384;51.940;8.432;2022-11-06T13:10:58;3.90;;;2.43;;
20449;SDS011;10384;51.940;8.432;2022-11-06T13:13:35;6.93;;;2.73;;
20449;SDS011;10384;51.940;8.432;2022-11-06T13:16:12;7.53;;;2.50;;
20449;SDS011;10384;51.940;8.432;2022-11-06T13:23:56;6.83;;;2.57;;
20449;SDS011;10384;51.940;8.432;2022-11-06T13:26:59;4.23;;;2.73;;
20449;SDS011;10384;51.940;8.432;2022-11-06T13:29:16;6.43;;;2.70;;
20449;SDS011;10384;51.940;8.432;2022-11-06T13:31:53;7.60;;;2.73;;
20449;SDS011;10384;51.940;8.432;2022-11-06T13:34:28;5.20;;;2.80;;
20449;SDS011;10384;51.940;8.432;2022-11-06T13:36:55;8.13;;;3.53;;
20449;SDS011;10384;51.940;8.432;2022-11-06T13:39:31;6.20;;;2.97;;
20449;SDS011;10384;51.940;8.432;2022-11-06T13:41:57;5.77;;;2.67;;
20449;SDS011;10384;51.940;8.432;2022-11-06T13:44:25;7.10;;;2.60;;
20449;SDS011;10384;51.940;8.432;2022-11-06T13:46:55;6.90;;;2.37;;
20449;SDS011;10384;51.940;8.432;2022-11-06T13:49:28;4.60;;;2.37;;
20449;SDS011;10384;51.940;8.432;2022-11-06T13:51:57;5.37;;;2.27;;
20449;SDS011;10384;51.940;8.432;2022-11-06T14:08:00;5.87;;;2.50;;
20449;SDS011;10384;51.940;8.432;2022-11-06T14:10:32;5.73;;;2.63;;
20449;SDS011;10384;51.940;8.432;2022-11-06T14:13:00;4.60;;;2.47;;
20449;SDS011;10384;51.940;8.432;2022-11-06T14:15:30;4.43;;;2.70;;
20449;SDS011;10384;51.940;8.432;2022-11-06T14:17:59;5.97;;;2.37;;
20449;SDS011;10384;51.940;8.432;2022-11-06T14:20:27;6.47;;;2.57;;
20449;SDS011;10384;51.940;8.432;2022-11-06T14:22:54;5.50;;;2.40;;
20449;SDS011;10384;51.940;8.432;2022-11-06T14:32:56;6.70;;;2.37;;
20449;SDS011;10384;51.940;8.432;2022-11-06T14:40:39;5.27;;;2.20;;
20449;SDS011;10384;51.940;8.432;2022-11-06T14:43:25;5.03;;;2.43;;
20449;SDS011;10384;51.940;8.432;2022-11-06T14:45:59;4.63;;;2.33;;
20449;SDS011;10384;51.940;8.432;2022-11-06T14:48:28;4.40;;;1.70;;
20449;SDS011;10384;51.940;8.432;2022-11-06T14:50:55;2.93;;;1.90;;
20449;SDS011;10384;51.940;8.432;2022-11-06T14:53:23;6.20;;;2.33;;
20449;SDS011;10384;51.940;8.432;2022-11-06T14:55:57;3.37;;;1.80;;
20449;SDS011;10384;51.940;8.432;2022-11-06T14:58:25;5.83;;;2.03;;
20449;SDS011;10384;51.940;8.432;2022-11-06T15:01:01;4.37;;;1.90;;
20449;SDS011;10384;51.940;8.432;2022-11-06T15:03:41;3.33;;;2.23;;
20449;SDS011;10384;51.940;8.432;2022-11-06T15:16:26;7.10;;;2.37;;
20449;SDS011;10384;51.940;8.432;2022-11-06T15:18:53;5.87;;;2.50;;
20449;SDS011;10384;51.940;8.432;2022-11-06T15:21:29;5.10;;;2.20;;
20449;SDS011;10384;51.940;8.432;2022-11-06T15:24:08;6.67;;;2.47;;
20449;SDS011;10384;51.940;8.432;2022-11-06T15:26:44;3.53;;;2.20;;
20449;SDS011;10384;51.940;8.432;2022-11-06T15:31:43;7.17;;;2.33;;
20449;SDS011;10384;51.940;8.432;2022-11-06T15:34:28;7.57;;;2.10;;
20449;SDS011;10384;51.940;8.432;2022-11-06T15:37:00;5.10;;;2.37;;
20449;SDS011;10384;51.940;8.432;2022-11-06T15:41:54;4.47;;;1.90;;
20449;SDS011;10384;51.940;8.432;2022-11-06T15:44:22;4.87;;;1.90;;
20449;SDS011;10384;51.940;8.432;2022-11-06T15:46:52;3.13;;;1.97;;
20449;SDS011;10384;51.940;8.432;2022-11-06T15:49:19;2.80;;;1.80;;
20449;SDS011;10384;51.940;8.432;2022-11-06T15:51:50;6.27;;;2.33;;
20449;SDS011;10384;51.940;8.432;2022-11-06T15:54:28;4.57;;;1.97;;
20449;SDS011;10384;51.940;8.432;2022-11-06T15:56:55;4.07;;;2.07;;
20449;SDS011;10384;51.940;8.432;2022-11-06T15:59:21;4.73;;;2.10;;
20449;SDS011;10384;51.940;8.432;2022-11-06T16:01:47;4.57;;;2.03;;
20449;SDS011;10384;51.940;8.432;2022-11-06T16:04:15;4.67;;;2.00;;
20449;SDS011;10384;51.940;8.432;2022-11-06T16:06:42;4.00;;;2.10;;
20449;SDS011;10384;51.940;8.432;2022-11-06T16:09:15;4.80;;;2.07;;
20449;SDS011;10384;51.940;8.432;2022-11-06T16:11:42;5.00;;;2.03;;
20449;SDS011;10384;51.940;8.432;2022-11-06T16:14:09;7.30;;;2.20;;
20449;SDS011;10384;51.940;8.432;2022-11-06T16:16:43;6.17;;;2.20;;
20449;SDS011;10384;51.940;8.432;2022-11-06T16:19:24;6.23;;;2.20;;
20449;SDS011;10384;51.940;8.432;2022-11-06T16:21:53;5.00;;;2.00;;
20449;SDS011;10384;51.940;8.432;2022-11-06T16:24:21;3.47;;;1.73;;
20449;SDS011;10384;51.940;8.432;2022-11-06T16:26:48;5.17;;;2.30;;
20449;SDS011;10384;51.940;8.432;2022-11-06T16:29:16;6.33;;;2.33;;
20449;SDS011;10384;51.940;8.432;2022-11-06T16:31:42;8.67;;;1.97;;
20449;SDS011;10384;51.940;8.432;2022-11-06T16:34:42;4.60;;;2.20;;
20449;SDS011;10384;51.940;8.432;2022-11-06T16:37:02;4.50;;;2.07;;
20449;SDS011;10384;51.940;8.432;2022-11-06T16:49:35;4.83;;;1.90;;
20449;SDS011;10384;51.940;8.432;2022-11-06T16:52:14;5.27;;;1.87;;
20449;SDS011;10384;51.940;8.432;2022-11-06T16:54:51;4.30;;;2.00;;
20449;SDS011;10384;51.940;8.432;2022-11-06T16:57:22;4.93;;;2.10;;
20449;SDS011;10384;51.940;8.432;2022-11-06T17:02:22;4.07;;;1.70;;
20449;SDS011;10384;51.940;8.432;2022-11-06T17:04:49;4.57;;;2.20;;
20449;SDS011;10384;51.940;8.432;2022-11-06T17:07:21;3.87;;;2.03;;
20449;SDS011;10384;51.940;8.432;2022-11-06T17:09:47;3.17;;;2.03;;
20449;SDS011;10384;51.940;8.432;2022-11-06T17:12:13;2.70;;;1.50;;
20449;SDS011;10384;51.940;8.432;2022-11-06T17:14:42;4.63;;;1.80;;